sensor_id;sensor_type;location;lat;lon;timestamp;pressure;altitude;pressure_sealevel;temperature;humidity
48778;BME280;34578;0.000;0.000;2023-04-25T00:02:35;96068.31;;;17.31;48.04
48778;BME280;34578;0.000;0.000;2023-04-25T00:07:36;96074.22;;;17.30;47.87
48778;BME280;34578;0.000;0.000;2023-04-25T00:12:36;96084.38;;;17.27;47.78
48778;BME280;34578;0.000;0.000;2023-04-25T00:17:37;96085.22;;;17.22;47.74
48778;BME280;34578;0.000;0.000;2023-04-25T00:22:38;96086.06;;;17.24;47.53
48778;BME280;34578;0.000;0.000;2023-04-25T00:27:38;96097.03;;;17.27;47.24
48778;BME280;34578;0.000;0.000;2023-04-25T00:32:39;96090.25;;;17.28;47.47
48778;BME280;34578;0.000;0.000;2023-04-25T00:37:39;96086.00;;;17.39;49.01
48778;BME280;34578;0.000;0.000;2023-04-25T00:42:41;96092.66;;;17.55;54.93
48778;BME280;34578;0.000;0.000;2023-04-25T00:47:44;96088.47;;;17.51;51.49
48778;BME280;34578;0.000;0.000;2023-04-25T00:52:44;96084.28;;;17.44;48.33
48778;BME280;34578;0.000;0.000;2023-04-25T00:57:45;96068.31;;;17.36;48.05
48778;BME280;34578;0.000;0.000;2023-04-25T01:02:47;96065.75;;;17.34;48.02
48778;BME280;34578;0.000;0.000;2023-04-25T01:07:47;96060.72;;;17.33;47.98
48778;BME280;34578;0.000;0.000;2023-04-25T01:12:47;96063.25;;;17.31;47.66
48778;BME280;34578;0.000;0.000;2023-04-25T01:17:48;96065.78;;;17.30;47.74
48778;BME280;34578;0.000;0.000;2023-04-25T01:22:50;96063.25;;;17.30;47.90
48778;BME280;34578;0.000;0.000;2023-04-25T01:27:51;96059.03;;;17.29;47.64
48778;BME280;34578;0.000;0.000;2023-04-25T01:32:54;96048.09;;;17.28;47.78
48778;BME280;34578;0.000;0.000;2023-04-25T01:37:55;96054.00;;;17.27;47.46
48778;BME280;34578;0.000;0.000;2023-04-25T01:42:56;96043.03;;;17.27;47.76
48778;BME280;34578;0.000;0.000;2023-04-25T01:47:56;96047.22;;;17.37;49.44
48778;BME280;34578;0.000;0.000;2023-04-25T01:52:59;96037.03;;;17.46;56.35
48778;BME280;34578;0.000;0.000;2023-04-25T01:58:02;96037.00;;;17.52;53.38
48778;BME280;34578;0.000;0.000;2023-04-25T02:03:22;96034.56;;;17.38;48.49
48778;BME280;34578;0.000;0.000;2023-04-25T02:08:22;96048.91;;;17.33;47.92
48778;BME280;34578;0.000;0.000;2023-04-25T02:13:23;96037.94;;;17.33;47.67
48778;BME280;34578;0.000;0.000;2023-04-25T02:18:36;96031.22;;;17.30;47.45
48778;BME280;34578;0.000;0.000;2023-04-25T02:23:40;96033.75;;;17.29;47.76
48778;BME280;34578;0.000;0.000;2023-04-25T02:28:40;96023.63;;;17.29;47.39
48778;BME280;34578;0.000;0.000;2023-04-25T02:33:41;96016.88;;;17.29;47.57
48778;BME280;34578;0.000;0.000;2023-04-25T02:38:41;96020.28;;;17.27;47.69
48778;BME280;34578;0.000;0.000;2023-04-25T02:43:42;96018.59;;;17.26;47.47
48778;BME280;34578;0.000;0.000;2023-04-25T02:48:42;96025.34;;;17.27;47.28
48778;BME280;34578;0.000;0.000;2023-04-25T02:53:43;96026.19;;;17.27;47.51
48778;BME280;34578;0.000;0.000;2023-04-25T02:58:44;96010.09;;;17.34;49.35
48778;BME280;34578;0.000;0.000;2023-04-25T03:03:45;95993.19;;;17.44;56.80
48778;BME280;34578;0.000;0.000;2023-04-25T03:08:45;96004.13;;;17.47;53.00
48778;BME280;34578;0.000;0.000;2023-04-25T03:13:46;96000.81;;;17.38;48.62
48778;BME280;34578;0.000;0.000;2023-04-25T03:18:46;95996.63;;;17.34;48.28
48778;BME280;34578;0.000;0.000;2023-04-25T03:23:47;95996.66;;;17.31;47.75
48778;BME280;34578;0.000;0.000;2023-04-25T03:28:47;95991.59;;;17.28;48.15
48778;BME280;34578;0.000;0.000;2023-04-25T03:33:48;95984.00;;;17.26;47.95
48778;BME280;34578;0.000;0.000;2023-04-25T03:38:48;95978.09;;;17.29;47.50
48778;BME280;34578;0.000;0.000;2023-04-25T03:43:50;95968.81;;;17.28;47.27
48778;BME280;34578;0.000;0.000;2023-04-25T03:48:51;95962.09;;;17.28;47.38
48778;BME280;34578;0.000;0.000;2023-04-25T03:53:56;95962.91;;;17.30;47.66
48778;BME280;34578;0.000;0.000;2023-04-25T03:59:16;95954.47;;;17.30;47.24
48778;BME280;34578;0.000;0.000;2023-04-25T04:04:17;95944.34;;;17.33;47.33
48778;BME280;34578;0.000;0.000;2023-04-25T04:09:18;95943.50;;;17.38;47.81
48778;BME280;34578;0.000;0.000;2023-04-25T04:14:20;95940.88;;;17.46;57.06
48778;BME280;34578;0.000;0.000;2023-04-25T04:19:23;95938.34;;;17.49;54.06
48778;BME280;34578;0.000;0.000;2023-04-25T04:24:43;95935.84;;;17.44;48.36
48778;BME280;34578;0.000;0.000;2023-04-25T04:29:48;95941.78;;;17.43;47.81
48778;BME280;34578;0.000;0.000;2023-04-25T04:34:55;95926.63;;;17.37;47.40
48778;BME280;34578;0.000;0.000;2023-04-25T04:39:57;95939.25;;;17.39;47.37
48778;BME280;34578;0.000;0.000;2023-04-25T04:45:17;95935.03;;;17.39;46.86
48778;BME280;34578;0.000;0.000;2023-04-25T04:50:30;95935.91;;;17.34;47.56
48778;BME280;34578;0.000;0.000;2023-04-25T04:55:49;95950.22;;;17.38;47.11
48778;BME280;34578;0.000;0.000;2023-04-25T05:01:10;95950.25;;;17.30;47.98
48778;BME280;34578;0.000;0.000;2023-04-25T05:06:29;95948.59;;;17.28;47.26
48778;BME280;34578;0.000;0.000;2023-04-25T05:11:48;95951.16;;;17.25;46.96
48778;BME280;34578;0.000;0.000;2023-04-25T05:17:00;95953.69;;;17.22;46.92
48778;BME280;34578;0.000;0.000;2023-04-25T05:22:15;95951.06;;;17.40;52.02
48778;BME280;34578;0.000;0.000;2023-04-25T05:27:33;95952.69;;;17.50;54.98
48778;BME280;34578;0.000;0.000;2023-04-25T05:33:00;95957.88;;;17.26;49.29
48778;BME280;34578;0.000;0.000;2023-04-25T05:38:01;95968.78;;;17.32;47.58
48778;BME280;34578;0.000;0.000;2023-04-25T05:43:22;95973.84;;;17.32;47.56
48778;BME280;34578;0.000;0.000;2023-04-25T05:48:31;95971.31;;;17.34;47.40
48778;BME280;34578;0.000;0.000;2023-04-25T05:54:05;95974.72;;;17.33;47.07
48778;BME280;34578;0.000;0.000;2023-04-25T05:59:07;95977.22;;;17.33;47.27
48778;BME280;34578;0.000;0.000;2023-04-25T06:04:07;95998.31;;;17.32;46.96
48778;BME280;34578;0.000;0.000;2023-04-25T06:09:08;96011.84;;;17.31;47.12
48778;BME280;34578;0.000;0.000;2023-04-25T06:14:09;96018.56;;;17.36;47.03
48778;BME280;34578;0.000;0.000;2023-04-25T06:19:13;96021.06;;;17.39;47.29
48778;BME280;34578;0.000;0.000;2023-04-25T06:24:14;96032.88;;;17.39;47.84
48778;BME280;34578;0.000;0.000;2023-04-25T06:29:14;96030.34;;;17.39;47.65
48778;BME280;34578;0.000;0.000;2023-04-25T06:34:15;96037.88;;;17.46;57.61
48778;BME280;34578;0.000;0.000;2023-04-25T06:39:15;96044.59;;;17.50;58.11
48778;BME280;34578;0.000;0.000;2023-04-25T06:44:17;96046.31;;;17.48;53.53
48778;BME280;34578;0.000;0.000;2023-04-25T06:49:26;96048.88;;;17.44;50.20
48778;BME280;34578;0.000;0.000;2023-04-25T06:54:27;96050.56;;;17.42;49.41
48778;BME280;34578;0.000;0.000;2023-04-25T06:59:38;96048.91;;;17.39;49.17
48778;BME280;34578;0.000;0.000;2023-04-25T07:04:39;96057.31;;;17.41;49.96
48778;BME280;34578;0.000;0.000;2023-04-25T07:09:40;96053.09;;;17.39;49.34
48778;BME280;34578;0.000;0.000;2023-04-25T07:14:40;96059.88;;;17.40;49.54
48778;BME280;34578;0.000;0.000;2023-04-25T07:19:42;96073.38;;;17.37;49.60
48778;BME280;34578;0.000;0.000;2023-04-25T07:24:43;96071.66;;;17.38;49.49
48778;BME280;34578;0.000;0.000;2023-04-25T07:29:47;96075.88;;;17.39;49.45
48778;BME280;34578;0.000;0.000;2023-04-25T07:34:48;96079.25;;;17.38;49.46
48778;BME280;34578;0.000;0.000;2023-04-25T07:39:48;96090.22;;;17.38;49.56
48778;BME280;34578;0.000;0.000;2023-04-25T07:44:49;96096.09;;;17.46;58.33
48778;BME280;34578;0.000;0.000;2023-04-25T07:49:50;96101.97;;;17.48;58.57
48778;BME280;34578;0.000;0.000;2023-04-25T07:54:50;96114.63;;;17.48;56.54
48778;BME280;34578;0.000;0.000;2023-04-25T07:59:56;96123.09;;;17.43;52.00
48778;BME280;34578;0.000;0.000;2023-04-25T08:04:57;96133.25;;;17.40;51.07
48778;BME280;34578;0.000;0.000;2023-04-25T08:09:57;96150.97;;;17.38;50.78
48778;BME280;34578;0.000;0.000;2023-04-25T08:15:06;96156.84;;;17.39;50.70
48778;BME280;34578;0.000;0.000;2023-04-25T08:20:10;96153.47;;;17.37;50.87
48778;BME280;34578;0.000;0.000;2023-04-25T08:25:11;96165.28;;;17.38;50.25
48778;BME280;34578;0.000;0.000;2023-04-25T08:30:12;96183.84;;;17.37;50.62
48778;BME280;34578;0.000;0.000;2023-04-25T08:35:15;96192.25;;;17.39;50.80
48778;BME280;34578;0.000;0.000;2023-04-25T08:40:19;96199.03;;;17.37;50.68
48778;BME280;34578;0.000;0.000;2023-04-25T08:45:31;96200.72;;;17.38;50.49
48778;BME280;34578;0.000;0.000;2023-04-25T08:50:33;96201.56;;;17.35;50.35
48778;BME280;34578;0.000;0.000;2023-04-25T08:55:37;96212.50;;;17.42;58.75
48778;BME280;34578;0.000;0.000;2023-04-25T09:00:39;96221.78;;;17.44;58.48
48778;BME280;34578;0.000;0.000;2023-04-25T09:05:41;96225.97;;;17.47;58.48
48778;BME280;34578;0.000;0.000;2023-04-25T09:10:42;96234.47;;;17.40;53.53
48778;BME280;34578;0.000;0.000;2023-04-25T09:15:54;96242.03;;;17.38;51.82
48778;BME280;34578;0.000;0.000;2023-04-25T09:21:11;96241.19;;;17.38;51.48
48778;BME280;34578;0.000;0.000;2023-04-25T09:26:16;96247.09;;;17.37;51.36
48778;BME280;34578;0.000;0.000;2023-04-25T09:31:22;96257.22;;;17.35;51.49
48778;BME280;34578;0.000;0.000;2023-04-25T09:36:30;96265.63;;;17.34;50.99
48778;BME280;34578;0.000;0.000;2023-04-25T09:41:42;96268.19;;;17.36;51.18
48778;BME280;34578;0.000;0.000;2023-04-25T09:46:42;96265.66;;;17.39;51.39
48778;BME280;34578;0.000;0.000;2023-04-25T09:51:58;96277.47;;;17.40;51.17
48778;BME280;34578;0.000;0.000;2023-04-25T09:57:20;96290.13;;;17.40;50.93
48778;BME280;34578;0.000;0.000;2023-04-25T10:02:25;96290.94;;;17.40;50.77
48778;BME280;34578;0.000;0.000;2023-04-25T10:07:30;96301.06;;;17.46;58.35
48778;BME280;34578;0.000;0.000;2023-04-25T10:12:35;96296.84;;;17.50;58.68
48778;BME280;34578;0.000;0.000;2023-04-25T10:17:36;96307.81;;;17.49;56.22
48778;BME280;34578;0.000;0.000;2023-04-25T10:22:42;96303.59;;;17.48;52.03
48778;BME280;34578;0.000;0.000;2023-04-25T10:27:43;96301.88;;;17.47;53.57
48778;BME280;34578;0.000;0.000;2023-04-25T10:32:44;96303.59;;;17.48;51.47
48778;BME280;34578;0.000;0.000;2023-04-25T10:38:24;96293.47;;;17.46;52.71
48778;BME280;34578;0.000;0.000;2023-04-25T10:43:39;96300.22;;;17.49;51.62
48778;BME280;34578;0.000;0.000;2023-04-25T10:48:46;96301.88;;;17.51;52.14
48778;BME280;34578;0.000;0.000;2023-04-25T10:54:00;96302.75;;;17.53;51.98
48778;BME280;34578;0.000;0.000;2023-04-25T10:59:10;96300.19;;;17.55;52.44
48778;BME280;34578;0.000;0.000;2023-04-25T11:09:32;96313.69;;;17.57;52.26
48778;BME280;34578;0.000;0.000;2023-04-25T11:14:33;96314.53;;;17.57;52.36
48778;BME280;34578;0.000;0.000;2023-04-25T11:19:33;96311.13;;;17.58;58.25
48778;BME280;34578;0.000;0.000;2023-04-25T11:24:35;96307.78;;;17.58;58.51
48778;BME280;34578;0.000;0.000;2023-04-25T11:29:36;96289.25;;;17.56;53.72
48778;BME280;34578;0.000;0.000;2023-04-25T11:34:36;96296.84;;;17.56;55.07
48778;BME280;34578;0.000;0.000;2023-04-25T11:39:37;96291.75;;;17.53;52.39
48778;BME280;34578;0.000;0.000;2023-04-25T11:44:40;96284.19;;;17.48;52.29
48778;BME280;34578;0.000;0.000;2023-04-25T11:49:40;96276.59;;;17.47;53.13
48778;BME280;34578;0.000;0.000;2023-04-25T11:54:46;96283.31;;;17.54;54.92
48778;BME280;34578;0.000;0.000;2023-04-25T11:59:46;96288.38;;;17.54;53.88
48778;BME280;34578;0.000;0.000;2023-04-25T12:04:47;96296.81;;;17.53;58.01
48778;BME280;34578;0.000;0.000;2023-04-25T12:09:51;96305.28;;;17.46;55.28
48778;BME280;34578;0.000;0.000;2023-04-25T12:14:52;96312.88;;;17.44;55.79
48778;BME280;34578;0.000;0.000;2023-04-25T12:19:52;96333.13;;;17.44;54.10
48778;BME280;34578;0.000;0.000;2023-04-25T12:24:52;96334.78;;;17.48;53.54
48778;BME280;34578;0.000;0.000;2023-04-25T12:29:55;96323.84;;;17.51;58.97
48778;BME280;34578;0.000;0.000;2023-04-25T12:34:56;96333.09;;;17.56;59.04
48778;BME280;34578;0.000;0.000;2023-04-25T12:39:56;96324.66;;;17.53;54.86
48778;BME280;34578;0.000;0.000;2023-04-25T12:44:57;96321.31;;;17.52;53.46
48778;BME280;34578;0.000;0.000;2023-04-25T12:49:57;96319.59;;;17.54;53.07
48778;BME280;34578;0.000;0.000;2023-04-25T12:54:57;96322.97;;;17.56;53.01
48778;BME280;34578;0.000;0.000;2023-04-25T12:59:58;96324.69;;;17.50;52.95
48778;BME280;34578;0.000;0.000;2023-04-25T13:04:58;96314.53;;;17.54;53.39
48778;BME280;34578;0.000;0.000;2023-04-25T13:09:59;96317.06;;;17.53;52.48
48778;BME280;34578;0.000;0.000;2023-04-25T13:15:00;96309.50;;;17.48;53.05
48778;BME280;34578;0.000;0.000;2023-04-25T13:20:01;96312.00;;;17.53;53.84
48778;BME280;34578;0.000;0.000;2023-04-25T13:25:01;96311.19;;;17.52;53.17
48778;BME280;34578;0.000;0.000;2023-04-25T13:30:03;96303.59;;;17.52;53.57
48778;BME280;34578;0.000;0.000;2023-04-25T13:35:09;96301.06;;;17.51;52.74
48778;BME280;34578;0.000;0.000;2023-04-25T13:40:10;96296.81;;;17.65;57.99
48778;BME280;34578;0.000;0.000;2023-04-25T13:45:11;96291.75;;;17.60;54.94
48778;BME280;34578;0.000;0.000;2023-04-25T13:50:12;96304.44;;;17.50;53.11
48778;BME280;34578;0.000;0.000;2023-04-25T13:55:13;96327.22;;;17.50;52.67
48778;BME280;34578;0.000;0.000;2023-04-25T14:00:14;96328.91;;;17.46;52.57
48778;BME280;34578;0.000;0.000;2023-04-25T14:05:15;96339.84;;;17.51;52.72
48778;BME280;34578;0.000;0.000;2023-04-25T14:10:15;96340.72;;;17.49;52.37
48778;BME280;34578;0.000;0.000;2023-04-25T14:15:16;96360.94;;;17.52;52.19
48778;BME280;34578;0.000;0.000;2023-04-25T14:20:16;96345.75;;;17.46;52.05
48778;BME280;34578;0.000;0.000;2023-04-25T14:25:20;96353.34;;;17.50;52.13
48778;BME280;34578;0.000;0.000;2023-04-25T14:30:21;96357.56;;;17.47;51.90
48778;BME280;34578;0.000;0.000;2023-04-25T14:35:22;96342.41;;;17.44;52.26
48778;BME280;34578;0.000;0.000;2023-04-25T14:40:23;96334.78;;;17.48;51.67
48778;BME280;34578;0.000;0.000;2023-04-25T14:45:23;96339.84;;;17.48;52.89
48778;BME280;34578;0.000;0.000;2023-04-25T14:50:24;96339.03;;;17.52;57.24
48778;BME280;34578;0.000;0.000;2023-04-25T14:55:25;96341.50;;;17.66;59.42
48778;BME280;34578;0.000;0.000;2023-04-25T15:00:25;96339.81;;;17.63;57.35
48778;BME280;34578;0.000;0.000;2023-04-25T15:05:26;96344.91;;;17.54;53.02
48778;BME280;34578;0.000;0.000;2023-04-25T15:10:28;96343.22;;;17.50;52.50
48778;BME280;34578;0.000;0.000;2023-04-25T15:15:28;96333.13;;;17.49;52.26
48778;BME280;34578;0.000;0.000;2023-04-25T15:20:29;96348.28;;;17.46;52.35
48778;BME280;34578;0.000;0.000;2023-04-25T15:25:30;96355.91;;;17.49;52.09
48778;BME280;34578;0.000;0.000;2023-04-25T15:30:30;96365.16;;;17.51;51.99
48778;BME280;34578;0.000;0.000;2023-04-25T15:35:30;96383.72;;;17.50;53.68
48778;BME280;34578;0.000;0.000;2023-04-25T15:40:31;96393.00;;;17.50;51.86
48778;BME280;34578;0.000;0.000;2023-04-25T15:45:31;96405.66;;;17.50;51.87
48778;BME280;34578;0.000;0.000;2023-04-25T15:50:32;96413.25;;;17.50;52.34
48778;BME280;34578;0.000;0.000;2023-04-25T15:55:33;96407.34;;;17.46;52.32
48778;BME280;34578;0.000;0.000;2023-04-25T16:00:33;96417.47;;;17.54;55.49
48778;BME280;34578;0.000;0.000;2023-04-25T16:05:35;96420.84;;;17.57;54.44
48778;BME280;34578;0.000;0.000;2023-04-25T16:10:36;96423.38;;;17.65;57.43
48778;BME280;34578;0.000;0.000;2023-04-25T16:15:37;96420.00;;;17.61;53.16
48778;BME280;34578;0.000;0.000;2023-04-25T16:20:39;96422.53;;;17.61;52.42
48778;BME280;34578;0.000;0.000;2023-04-25T16:25:39;96429.25;;;17.59;52.47
48778;BME280;34578;0.000;0.000;2023-04-25T16:30:40;96430.13;;;17.57;52.22
48778;BME280;34578;0.000;0.000;2023-04-25T16:35:40;96426.75;;;17.56;52.30
48778;BME280;34578;0.000;0.000;2023-04-25T16:40:40;96427.59;;;17.60;52.20
48778;BME280;34578;0.000;0.000;2023-04-25T16:45:41;96426.75;;;17.61;52.12
48778;BME280;34578;0.000;0.000;2023-04-25T16:50:41;96438.56;;;17.60;55.96
48778;BME280;34578;0.000;0.000;2023-04-25T16:55:42;96439.41;;;17.58;52.83
48778;BME280;34578;0.000;0.000;2023-04-25T17:00:42;96441.94;;;17.61;52.87
48778;BME280;34578;0.000;0.000;2023-04-25T17:05:43;96452.88;;;17.63;52.71
48778;BME280;34578;0.000;0.000;2023-04-25T17:10:43;96454.56;;;17.65;52.77
48778;BME280;34578;0.000;0.000;2023-04-25T17:15:44;96475.66;;;17.69;60.66
48778;BME280;34578;0.000;0.000;2023-04-25T17:20:44;96475.69;;;17.70;57.92
48778;BME280;34578;0.000;0.000;2023-04-25T17:25:45;96466.41;;;17.74;53.51
48778;BME280;34578;0.000;0.000;2023-04-25T17:30:45;96465.53;;;17.75;53.79
48778;BME280;34578;0.000;0.000;2023-04-25T17:35:46;96471.47;;;17.74;53.40
48778;BME280;34578;0.000;0.000;2023-04-25T17:40:46;96486.66;;;17.72;53.08
48778;BME280;34578;0.000;0.000;2023-04-25T17:45:47;96482.41;;;17.70;53.85
48778;BME280;34578;0.000;0.000;2023-04-25T17:50:47;96478.22;;;17.61;54.61
48778;BME280;34578;0.000;0.000;2023-04-25T17:55:48;96483.25;;;17.54;54.13
48778;BME280;34578;0.000;0.000;2023-04-25T18:00:49;96477.38;;;17.43;53.84
48778;BME280;34578;0.000;0.000;2023-04-25T18:05:52;96474.00;;;17.45;53.77
48778;BME280;34578;0.000;0.000;2023-04-25T18:10:53;96484.13;;;17.44;53.00
48778;BME280;34578;0.000;0.000;2023-04-25T18:15:54;96486.63;;;17.42;53.35
48778;BME280;34578;0.000;0.000;2023-04-25T18:20:55;96485.81;;;17.42;53.37
48778;BME280;34578;0.000;0.000;2023-04-25T18:25:56;96503.50;;;17.58;59.63
48778;BME280;34578;0.000;0.000;2023-04-25T18:30:56;96517.03;;;17.65;60.75
48778;BME280;34578;0.000;0.000;2023-04-25T18:35:57;96506.91;;;17.62;57.61
48778;BME280;34578;0.000;0.000;2023-04-25T18:41:00;96517.00;;;17.53;56.44
48778;BME280;34578;0.000;0.000;2023-04-25T18:46:00;96525.47;;;17.49;55.64
48778;BME280;34578;0.000;0.000;2023-04-25T18:51:01;96533.88;;;17.45;54.88
48778;BME280;34578;0.000;0.000;2023-04-25T18:56:01;96543.16;;;17.43;54.25
48778;BME280;34578;0.000;0.000;2023-04-25T19:01:01;96556.66;;;17.42;53.93
48778;BME280;34578;0.000;0.000;2023-04-25T19:06:03;96548.25;;;17.40;53.47
48778;BME280;34578;0.000;0.000;2023-04-25T19:11:04;96561.69;;;17.39;53.53
48778;BME280;34578;0.000;0.000;2023-04-25T19:16:05;96560.03;;;17.38;53.09
48778;BME280;34578;0.000;0.000;2023-04-25T19:21:06;96565.94;;;17.37;53.14
48778;BME280;34578;0.000;0.000;2023-04-25T19:26:07;96560.84;;;17.35;52.69
48778;BME280;34578;0.000;0.000;2023-04-25T19:31:08;96563.38;;;17.35;52.83
48778;BME280;34578;0.000;0.000;2023-04-25T19:36:08;96572.69;;;17.47;58.37
48778;BME280;34578;0.000;0.000;2023-04-25T19:41:08;96571.88;;;17.57;61.95
48778;BME280;34578;0.000;0.000;2023-04-25T19:46:09;96580.31;;;17.62;60.05
48778;BME280;34578;0.000;0.000;2023-04-25T19:51:09;96582.84;;;17.54;57.76
48778;BME280;34578;0.000;0.000;2023-04-25T19:56:10;96585.34;;;17.47;56.54
48778;BME280;34578;0.000;0.000;2023-04-25T20:01:10;96581.97;;;17.42;55.64
48778;BME280;34578;0.000;0.000;2023-04-25T20:06:10;96592.94;;;17.39;54.66
48778;BME280;34578;0.000;0.000;2023-04-25T20:11:11;96595.47;;;17.47;55.99
48778;BME280;34578;0.000;0.000;2023-04-25T20:16:11;96593.78;;;17.43;55.29
48778;BME280;34578;0.000;0.000;2023-04-25T20:21:13;96588.72;;;17.40;54.46
48778;BME280;34578;0.000;0.000;2023-04-25T20:26:13;96595.44;;;17.38;53.82
48778;BME280;34578;0.000;0.000;2023-04-25T20:31:16;96591.22;;;17.37;53.54
48778;BME280;34578;0.000;0.000;2023-04-25T20:36:17;96597.13;;;17.36;53.59
48778;BME280;34578;0.000;0.000;2023-04-25T20:41:18;96597.94;;;17.35;52.64
48778;BME280;34578;0.000;0.000;2023-04-25T20:46:19;96590.38;;;17.38;56.34
48778;BME280;34578;0.000;0.000;2023-04-25T20:51:20;96591.28;;;17.49;62.75
48778;BME280;34578;0.000;0.000;2023-04-25T20:56:20;96588.72;;;17.50;63.14
48778;BME280;34578;0.000;0.000;2023-04-25T21:01:21;96572.69;;;17.53;60.31
48778;BME280;34578;0.000;0.000;2023-04-25T21:06:21;96575.22;;;17.44;57.50
48778;BME280;34578;0.000;0.000;2023-04-25T21:11:22;96599.69;;;17.42;56.35
48778;BME280;34578;0.000;0.000;2023-04-25T21:16:22;96597.13;;;17.39;55.26
48778;BME280;34578;0.000;0.000;2023-04-25T21:21:23;96614.88;;;17.37;54.89
48778;BME280;34578;0.000;0.000;2023-04-25T21:26:23;96622.44;;;17.36;54.30
48778;BME280;34578;0.000;0.000;2023-04-25T21:31:24;96622.38;;;17.34;53.84
48778;BME280;34578;0.000;0.000;2023-04-25T21:36:25;96619.03;;;17.34;53.50
48778;BME280;34578;0.000;0.000;2023-04-25T21:41:26;96620.72;;;17.33;53.44
48778;BME280;34578;0.000;0.000;2023-04-25T21:46:27;96624.09;;;17.34;53.17
48778;BME280;34578;0.000;0.000;2023-04-25T21:51:27;96625.78;;;17.30;53.01
48778;BME280;34578;0.000;0.000;2023-04-25T21:56:28;96629.16;;;17.31;52.59
48778;BME280;34578;0.000;0.000;2023-04-25T22:01:28;96635.97;;;17.44;62.58
48778;BME280;34578;0.000;0.000;2023-04-25T22:06:28;96634.28;;;17.46;62.49
48778;BME280;34578;0.000;0.000;2023-04-25T22:11:29;96631.75;;;17.52;61.86
48778;BME280;34578;0.000;0.000;2023-04-25T22:16:29;96620.78;;;17.44;58.98
48778;BME280;34578;0.000;0.000;2023-04-25T22:21:30;96621.59;;;17.38;56.76
48778;BME280;34578;0.000;0.000;2023-04-25T22:26:31;96626.66;;;17.37;55.45
48778;BME280;34578;0.000;0.000;2023-04-25T22:31:32;96630.03;;;17.36;54.98
48778;BME280;34578;0.000;0.000;2023-04-25T22:36:33;96634.22;;;17.34;54.45
48778;BME280;34578;0.000;0.000;2023-04-25T22:41:34;96632.50;;;17.31;54.09
48778;BME280;34578;0.000;0.000;2023-04-25T22:46:34;96632.53;;;17.33;53.75
48778;BME280;34578;0.000;0.000;2023-04-25T22:51:34;96634.22;;;17.31;53.59
48778;BME280;34578;0.000;0.000;2023-04-25T22:56:36;96638.41;;;17.30;53.23
48778;BME280;34578;0.000;0.000;2023-04-25T23:01:36;96640.94;;;17.29;53.23
48778;BME280;34578;0.000;0.000;2023-04-25T23:06:37;96632.50;;;17.27;52.77
48778;BME280;34578;0.000;0.000;2023-04-25T23:11:40;96642.69;;;17.36;58.40
48778;BME280;34578;0.000;0.000;2023-04-25T23:16:41;96639.34;;;17.40;62.63
48778;BME280;34578;0.000;0.000;2023-04-25T23:21:41;96646.09;;;17.44;62.50
48778;BME280;34578;0.000;0.000;2023-04-25T23:26:42;96648.63;;;17.45;60.05
48778;BME280;34578;0.000;0.000;2023-04-25T23:31:42;96654.53;;;17.40;57.51
48778;BME280;34578;0.000;0.000;2023-04-25T23:36:42;96651.09;;;17.35;56.00
48778;BME280;34578;0.000;0.000;2023-04-25T23:41:43;96650.22;;;17.34;54.89
48778;BME280;34578;0.000;0.000;2023-04-25T23:46:43;96658.69;;;17.32;54.61
48778;BME280;34578;0.000;0.000;2023-04-25T23:51:43;96662.03;;;17.28;54.35
48778;BME280;34578;0.000;0.000;2023-04-25T23:56:44;96667.91;;;17.30;53.79
